createdAt,value
2017-09-19T00:00:03.565Z,10.04
2017-09-19T00:00:07.617Z,10.02
2017-09-19T00:00:11.795Z,10.02
2017-09-19T00:00:16.349Z,10.04
2017-09-19T00:00:20.528Z,10.06
2017-09-19T00:00:24.958Z,10.01
2017-09-19T00:00:29.144Z,9.99
2017-09-19T00:00:33.074Z,10.01
2017-09-19T00:00:37.250Z,10.02
2017-09-19T00:00:41.684Z,10.01
2017-09-19T00:00:45.621Z,10.04
2017-09-19T00:00:50.089Z,10.01
2017-09-19T00:00:54.515Z,10.01
2017-09-19T00:00:58.819Z,10.04
2017-09-19T00:01:03.274Z,10.01
2017-09-19T00:01:07.333Z,10.02
2017-09-19T00:01:11.388Z,10.04
2017-09-19T00:01:15.452Z,10.01
2017-09-19T00:01:20.009Z,10.01
2017-09-19T00:01:24.063Z,10.01
2017-09-19T00:01:28.616Z,9.96
2017-09-19T00:01:32.925Z,9.98
2017-09-19T00:01:36.850Z,10.04
2017-09-19T00:01:41.278Z,10.01
2017-09-19T00:01:45.471Z,10.07
2017-09-19T00:01:49.897Z,9.99
2017-09-19T00:01:54.202Z,10.04
2017-09-19T00:01:58.553Z,10.02
2017-09-19T00:02:02.736Z,9.99
2017-09-19T00:02:06.786Z,10.01
2017-09-19T00:02:10.968Z,10.01
2017-09-19T00:02:15.277Z,10.01
2017-09-19T00:02:19.453Z,10.04
2017-09-19T00:02:24.055Z,9.98
2017-09-19T00:02:28.359Z,10.02
2017-09-19T00:02:32.667Z,9.98
2017-09-19T00:02:37.097Z,10.01
2017-09-19T00:02:41.529Z,9.98
2017-09-19T00:02:45.711Z,9.99
2017-09-19T00:02:49.890Z,10.04
2017-09-19T00:02:53.941Z,9.96
2017-09-19T00:02:58.250Z,9.95
2017-09-19T00:03:02.581Z,10.04
2017-09-19T00:03:06.887Z,10.01
2017-09-19T00:03:10.939Z,10.07
2017-09-19T00:03:15.498Z,10.04
2017-09-19T00:03:19.971Z,10.06
2017-09-19T00:03:24.276Z,9.95
2017-09-19T00:03:28.580Z,10.01
2017-09-19T00:03:33.126Z,10.02
2017-09-19T00:03:37.306Z,10.04
2017-09-19T00:03:41.482Z,9.96
2017-09-19T00:03:45.910Z,10.04
2017-09-19T00:03:50.091Z,10.04
2017-09-19T00:03:54.017Z,9.99
2017-09-19T00:03:58.317Z,10.04
2017-09-19T00:04:02.469Z,10.04
2017-09-19T00:04:06.658Z,9.98
2017-09-19T00:04:10.710Z,9.96
2017-09-19T00:04:14.889Z,9.99
2017-09-19T00:04:18.940Z,10.01
2017-09-19T00:04:23.246Z,9.93
2017-09-19T00:04:27.432Z,9.99
2017-09-19T00:04:31.987Z,10.06
2017-09-19T00:04:36.169Z,9.95
2017-09-19T00:04:40.347Z,10.02
2017-09-19T00:04:44.152Z,9.99
2017-09-19T00:04:48.458Z,9.99
2017-09-19T00:04:52.636Z,10.02
2017-09-19T00:04:56.569Z,10.06
2017-09-19T00:05:00.878Z,9.96
2017-09-19T00:05:05.429Z,9.96
2017-09-19T00:05:09.610Z,9.99
2017-09-19T00:05:14.047Z,9.96
2017-09-19T00:05:18.350Z,9.99
2017-09-19T00:05:22.534Z,9.99
2017-09-19T00:05:26.707Z,9.92
2017-09-19T00:05:30.768Z,9.96
2017-09-19T00:05:34.949Z,9.93
2017-09-19T00:05:39.505Z,9.98
2017-09-19T00:05:43.685Z,9.95
2017-09-19T00:05:47.989Z,9.92
2017-09-19T00:05:52.544Z,10.02
2017-09-19T00:05:56.721Z,9.98
2017-09-19T00:06:01.024Z,9.95
2017-09-19T00:06:05.084Z,10.01
2017-09-19T00:06:09.283Z,9.96
2017-09-19T00:06:13.583Z,9.98
2017-09-19T00:06:18.009Z,9.92
2017-09-19T00:06:22.058Z,9.96
2017-09-19T00:06:26.486Z,9.99
2017-09-19T00:06:30.786Z,9.95
2017-09-19T00:06:34.964Z,9.99
2017-09-19T00:06:39.518Z,9.96
2017-09-19T00:06:43.702Z,9.95
2017-09-19T00:06:48.004Z,10.01
2017-09-19T00:06:52.185Z,9.96
2017-09-19T00:06:56.482Z,10.02
2017-09-19T00:07:00.788Z,9.95
2017-09-19T00:07:04.938Z,9.96
2017-09-19T00:07:09.366Z,9.93
2017-09-19T00:07:13.420Z,9.93
2017-09-19T00:07:17.601Z,9.96
2017-09-19T00:07:21.905Z,9.93
2017-09-19T00:07:26.458Z,9.96
2017-09-19T00:07:30.515Z,9.93
2017-09-19T00:07:35.109Z,10.02
2017-09-19T00:07:39.288Z,9.93
2017-09-19T00:07:43.466Z,10.01
2017-09-19T00:07:47.649Z,9.99
2017-09-19T00:07:51.827Z,9.96
2017-09-19T00:07:55.877Z,9.95
2017-09-19T00:08:00.049Z,10.01
2017-09-19T00:08:04.232Z,9.95
2017-09-19T00:08:08.411Z,9.92
2017-09-19T00:08:12.845Z,9.96
2017-09-19T00:08:17.404Z,9.98
2017-09-19T00:08:21.459Z,9.95
2017-09-19T00:08:25.635Z,10.01
2017-09-19T00:08:29.940Z,9.99
2017-09-19T00:08:34.242Z,9.95
2017-09-19T00:08:38.670Z,9.99
2017-09-19T00:08:42.851Z,9.93
2017-09-19T00:08:47.273Z,9.99
2017-09-19T00:08:51.447Z,10.01
2017-09-19T00:08:55.621Z,10.02
2017-09-19T00:08:59.807Z,9.95
2017-09-19T00:09:04.159Z,9.98
2017-09-19T00:09:08.211Z,9.95
2017-09-19T00:09:12.384Z,9.95
2017-09-19T00:09:16.696Z,9.92
2017-09-19T00:09:21.129Z,9.96
2017-09-19T00:09:25.554Z,9.96
2017-09-19T00:09:29.858Z,9.96
2017-09-19T00:09:33.911Z,9.92
2017-09-19T00:09:38.211Z,10.01
2017-09-19T00:09:42.011Z,9.96
2017-09-19T00:09:46.194Z,9.96
2017-09-19T00:09:50.647Z,9.96
2017-09-19T00:09:54.699Z,9.96
2017-09-19T00:09:59.002Z,10.01
2017-09-19T00:10:03.435Z,10.01
2017-09-19T00:10:07.625Z,10.02
2017-09-19T00:10:11.809Z,10.01
2017-09-19T00:10:16.109Z,9.96
2017-09-19T00:10:20.163Z,9.96
2017-09-19T00:10:24.217Z,9.96
2017-09-19T00:10:28.266Z,9.96
2017-09-19T00:10:32.316Z,9.96
2017-09-19T00:10:36.504Z,9.95
2017-09-19T00:10:41.104Z,9.99
2017-09-19T00:10:45.157Z,9.95
2017-09-19T00:10:49.720Z,10.06
2017-09-19T00:10:54.281Z,9.95
2017-09-19T00:10:58.577Z,9.95
2017-09-19T00:11:02.880Z,9.95
2017-09-19T00:11:07.183Z,9.98
2017-09-19T00:11:11.614Z,9.96
2017-09-19T00:11:16.045Z,10.01
2017-09-19T00:11:20.346Z,10.01
2017-09-19T00:11:24.522Z,10.01
2017-09-19T00:11:28.475Z,9.99
2017-09-19T00:11:32.747Z,10.01
2017-09-19T00:11:36.924Z,9.93
2017-09-19T00:11:41.229Z,10.02
2017-09-19T00:11:45.555Z,9.98
2017-09-19T00:11:49.861Z,9.95
2017-09-19T00:11:53.906Z,10.04
2017-09-19T00:11:58.477Z,9.99
2017-09-19T00:12:02.781Z,10.01
2017-09-19T00:12:06.710Z,9.98
2017-09-19T00:12:10.888Z,10.01
2017-09-19T00:12:15.329Z,10.04
2017-09-19T00:12:19.638Z,9.99
2017-09-19T00:12:23.954Z,9.95
2017-09-19T00:12:28.261Z,10.01
2017-09-19T00:12:32.561Z,10.01
2017-09-19T00:12:36.867Z,10.01
2017-09-19T00:12:41.165Z,9.99
2017-09-19T00:12:45.343Z,10.01
2017-09-19T00:12:49.413Z,9.96
2017-09-19T00:12:53.589Z,10.02
2017-09-19T00:12:57.771Z,9.95
2017-09-19T00:13:02.323Z,10.01
2017-09-19T00:13:06.510Z,10.01
2017-09-19T00:13:10.810Z,9.98
2017-09-19T00:13:15.233Z,10.01
2017-09-19T00:13:19.296Z,10.02
2017-09-19T00:13:23.470Z,9.99
2017-09-19T00:13:27.528Z,9.91
2017-09-19T00:13:31.954Z,10.02
2017-09-19T00:13:36.011Z,9.95
2017-09-19T00:13:40.064Z,10.01
2017-09-19T00:13:44.367Z,9.99
2017-09-19T00:13:48.675Z,10.02
2017-09-19T00:13:53.233Z,9.99
2017-09-19T00:13:57.706Z,9.99
2017-09-19T00:14:02.016Z,9.95
2017-09-19T00:14:06.189Z,9.99
2017-09-19T00:14:10.621Z,9.98
2017-09-19T00:14:14.921Z,10.06
2017-09-19T00:14:19.092Z,10.01
2017-09-19T00:14:23.281Z,9.99
2017-09-19T00:14:27.455Z,9.99
2017-09-19T00:14:31.508Z,10.02
2017-09-19T00:14:35.690Z,10.04
2017-09-19T00:14:39.995Z,10.04
2017-09-19T00:14:44.047Z,9.93
2017-09-19T00:14:48.224Z,9.95
2017-09-19T00:14:52.282Z,9.98
2017-09-19T00:14:56.590Z,10.02
2017-09-19T00:15:00.771Z,10.04
2017-09-19T00:15:04.959Z,9.99
2017-09-19T00:15:09.130Z,9.93
2017-09-19T00:15:13.431Z,10.02
2017-09-19T00:15:17.747Z,9.98
2017-09-19T00:15:21.923Z,10.02
2017-09-19T00:15:26.357Z,10.04
2017-09-19T00:15:30.790Z,9.95
2017-09-19T00:15:34.966Z,10.02
2017-09-19T00:15:39.147Z,9.95
2017-09-19T00:15:43.452Z,10.01
2017-09-19T00:15:47.756Z,10.06
2017-09-19T00:15:51.940Z,10.02
2017-09-19T00:15:55.993Z,9.99
2017-09-19T00:16:00.295Z,9.95
2017-09-19T00:16:04.643Z,10.04
2017-09-19T00:16:08.824Z,9.99
2017-09-19T00:16:12.999Z,10.04
2017-09-19T00:16:17.429Z,9.99
2017-09-19T00:16:21.731Z,10.02
2017-09-19T00:16:25.913Z,10.04
2017-09-19T00:16:30.342Z,10.02
2017-09-19T00:16:34.642Z,10.01
2017-09-19T00:16:39.079Z,10.01
2017-09-19T00:16:43.258Z,9.98
2017-09-19T00:16:47.305Z,10.01
2017-09-19T00:16:51.745Z,10.01
2017-09-19T00:16:55.798Z,9.99
2017-09-19T00:17:00.356Z,9.99
2017-09-19T00:17:04.378Z,10.01
2017-09-19T00:17:08.930Z,10.01
2017-09-19T00:17:13.360Z,10.06
2017-09-19T00:17:17.298Z,9.98
2017-09-19T00:17:21.471Z,9.99
2017-09-19T00:17:25.825Z,9.98
2017-09-19T00:17:30.263Z,9.98
2017-09-19T00:17:34.565Z,10.01
2017-09-19T00:17:38.873Z,9.98
2017-09-19T00:17:43.046Z,10.02
2017-09-19T00:17:47.479Z,10.02
2017-09-19T00:17:51.789Z,10.01
2017-09-19T00:17:55.961Z,10.02
2017-09-19T00:18:00.258Z,9.96
2017-09-19T00:18:04.490Z,10.01
2017-09-19T00:18:08.549Z,10.06
2017-09-19T00:18:12.974Z,9.99
2017-09-19T00:18:16.905Z,10.04
2017-09-19T00:18:21.342Z,10.01
2017-09-19T00:18:25.402Z,9.99
2017-09-19T00:18:29.583Z,10.01
2017-09-19T00:18:33.636Z,9.99
2017-09-19T00:18:37.943Z,10.04
2017-09-19T00:18:42.122Z,9.99
2017-09-19T00:18:46.175Z,10.06
2017-09-19T00:18:50.476Z,10.01
2017-09-19T00:18:54.656Z,9.98
2017-09-19T00:18:58.835Z,10.01
2017-09-19T00:19:03.384Z,10.04
2017-09-19T00:19:07.690Z,10.01
2017-09-19T00:19:11.998Z,10.02
2017-09-19T00:19:16.175Z,10.02
2017-09-19T00:19:20.354Z,10.09
2017-09-19T00:19:24.286Z,10.06
2017-09-19T00:19:28.460Z,10.06
2017-09-19T00:19:32.883Z,9.99
2017-09-19T00:19:37.429Z,10.02
2017-09-19T00:19:41.739Z,10.07
2017-09-19T00:19:45.806Z,10.07
2017-09-19T00:19:50.107Z,10.01
2017-09-19T00:19:54.282Z,10.09
2017-09-19T00:19:58.584Z,10.13
2017-09-19T00:20:02.884Z,10.04
2017-09-19T00:20:06.938Z,10.07
2017-09-19T00:20:10.741Z,10.09
2017-09-19T00:20:14.795Z,10.02
2017-09-19T00:20:19.104Z,10.07
2017-09-19T00:20:23.279Z,10.09
2017-09-19T00:20:27.580Z,10.07
2017-09-19T00:20:31.894Z,10.06
2017-09-19T00:20:36.234Z,10.07
2017-09-19T00:20:40.538Z,10.09
2017-09-19T00:20:44.725Z,10.02
2017-09-19T00:20:49.029Z,9.99
2017-09-19T00:20:53.222Z,10.06
2017-09-19T00:20:57.409Z,10.06
2017-09-19T00:21:01.452Z,10.07
2017-09-19T00:21:05.635Z,10.04
2017-09-19T00:21:09.819Z,10.04
2017-09-19T00:21:13.998Z,10.07
2017-09-19T00:21:18.058Z,10.14
2017-09-19T00:21:22.239Z,10.11
2017-09-19T00:21:26.417Z,10.09
2017-09-19T00:21:30.465Z,10.11
2017-09-19T00:21:34.642Z,10.09
2017-09-19T00:21:39.075Z,10.04
2017-09-19T00:21:43.000Z,10.09
2017-09-19T00:21:47.422Z,10.13
2017-09-19T00:21:51.602Z,10.11
2017-09-19T00:21:55.524Z,10.14
2017-09-19T00:21:59.835Z,10.11
2017-09-19T00:22:03.891Z,10.13
2017-09-19T00:22:07.820Z,10.09
2017-09-19T00:22:11.872Z,10.11
2017-09-19T00:22:16.305Z,10.13
2017-09-19T00:22:20.601Z,10.1
2017-09-19T00:22:24.660Z,10.14
2017-09-19T00:22:28.958Z,10.18
2017-09-19T00:22:33.135Z,10.13
2017-09-19T00:22:37.310Z,10.14
2017-09-19T00:22:41.619Z,10.11
2017-09-19T00:22:45.799Z,10.17
2017-09-19T00:22:50.103Z,10.06
2017-09-19T00:22:54.030Z,10.16
2017-09-19T00:22:58.086Z,10.13
2017-09-19T00:23:02.695Z,10.14
2017-09-19T00:23:06.999Z,10.14
2017-09-19T00:23:11.301Z,10.11
2017-09-19T00:23:15.476Z,10.1
2017-09-19T00:23:19.655Z,10.1
2017-09-19T00:23:23.840Z,10.14
2017-09-19T00:23:28.142Z,10.14
2017-09-19T00:23:32.189Z,10.17
2017-09-19T00:23:36.371Z,10.16
2017-09-19T00:23:40.554Z,10.16
2017-09-19T00:23:44.851Z,10.16
2017-09-19T00:23:48.901Z,10.14
2017-09-19T00:23:53.210Z,10.18
2017-09-19T00:23:57.141Z,10.17
2017-09-19T00:24:01.075Z,10.13
2017-09-19T00:24:05.257Z,10.16
2017-09-19T00:24:09.688Z,10.13
2017-09-19T00:24:13.997Z,10.16
2017-09-19T00:24:18.428Z,10.13
2017-09-19T00:24:22.853Z,10.16
2017-09-19T00:24:27.158Z,10.14
2017-09-19T00:24:31.208Z,10.14
2017-09-19T00:24:35.510Z,10.14
2017-09-19T00:24:39.560Z,10.11
2017-09-19T00:24:43.744Z,10.14
2017-09-19T00:24:47.798Z,10.2
2017-09-19T00:24:51.850Z,10.14
2017-09-19T00:24:55.904Z,10.14
2017-09-19T00:25:00.206Z,10.14
2017-09-19T00:25:04.510Z,10.09
2017-09-19T00:25:08.940Z,10.11
2017-09-19T00:25:13.130Z,10.16
2017-09-19T00:25:17.598Z,10.13
2017-09-19T00:25:21.897Z,10.17
2017-09-19T00:25:26.330Z,10.11
2017-09-19T00:25:30.638Z,10.14
2017-09-19T00:25:34.562Z,10.18
2017-09-19T00:25:38.744Z,10.16
2017-09-19T00:25:42.916Z,10.11
2017-09-19T00:25:47.339Z,10.13
2017-09-19T00:25:51.636Z,10.16
2017-09-19T00:25:56.070Z,10.14
2017-09-19T00:26:00.121Z,10.11
2017-09-19T00:26:04.214Z,10.14
2017-09-19T00:26:08.398Z,10.14
2017-09-19T00:26:12.823Z,10.14
2017-09-19T00:26:17.006Z,10.11
2017-09-19T00:26:21.440Z,10.11
2017-09-19T00:26:25.750Z,10.14
2017-09-19T00:26:29.927Z,10.14
2017-09-19T00:26:33.987Z,10.16
2017-09-19T00:26:38.169Z,10.14
2017-09-19T00:26:42.466Z,10.2
2017-09-19T00:26:46.641Z,10.2
2017-09-19T00:26:50.945Z,10.16
2017-09-19T00:26:55.376Z,10.14
2017-09-19T00:26:59.425Z,10.16
2017-09-19T00:27:03.584Z,10.14
2017-09-19T00:27:07.509Z,10.2
2017-09-19T00:27:11.938Z,10.16
2017-09-19T00:27:16.240Z,10.16
2017-09-19T00:27:20.291Z,10.18
2017-09-19T00:27:24.227Z,10.13
2017-09-19T00:27:28.652Z,10.2
2017-09-19T00:27:32.717Z,10.2
2017-09-19T00:27:37.139Z,10.17
2017-09-19T00:27:41.193Z,10.16
2017-09-19T00:27:45.498Z,10.25
2017-09-19T00:27:49.676Z,10.25
2017-09-19T00:27:53.979Z,10.17
2017-09-19T00:27:58.026Z,10.16
2017-09-19T00:28:02.679Z,10.26
2017-09-19T00:28:06.610Z,10.24
2017-09-19T00:28:10.665Z,10.16
2017-09-19T00:28:14.985Z,10.17
2017-09-19T00:28:19.051Z,10.2
2017-09-19T00:28:23.225Z,10.2
2017-09-19T00:28:27.650Z,10.17
2017-09-19T00:28:31.704Z,10.2
2017-09-19T00:28:36.127Z,10.22
2017-09-19T00:28:40.183Z,10.26
2017-09-19T00:28:44.357Z,10.17
2017-09-19T00:28:48.667Z,10.2
2017-09-19T00:28:52.710Z,10.18
2017-09-19T00:28:56.885Z,10.17
2017-09-19T00:29:01.063Z,10.2
2017-09-19T00:29:05.242Z,10.17
2017-09-19T00:29:09.187Z,10.26
2017-09-19T00:29:13.368Z,10.22
2017-09-19T00:29:17.419Z,10.22
2017-09-19T00:29:21.724Z,10.24
2017-09-19T00:29:25.903Z,10.26
2017-09-19T00:29:29.961Z,10.26
2017-09-19T00:29:34.263Z,10.18
2017-09-19T00:29:38.694Z,10.32
2017-09-19T00:29:43.002Z,10.18
2017-09-19T00:29:47.305Z,10.22
2017-09-19T00:29:51.357Z,10.28
2017-09-19T00:29:55.670Z,10.22
2017-09-19T00:29:59.844Z,10.26
2017-09-19T00:30:04.028Z,10.25
2017-09-19T00:30:08.330Z,10.18
2017-09-19T00:30:12.522Z,10.24
2017-09-19T00:30:16.702Z,10.22
2017-09-19T00:30:21.010Z,10.29
2017-09-19T00:30:25.311Z,10.24
2017-09-19T00:30:29.492Z,10.22
2017-09-19T00:30:33.919Z,10.26
2017-09-19T00:30:38.096Z,10.24
2017-09-19T00:30:42.147Z,10.25
2017-09-19T00:30:46.449Z,10.22
2017-09-19T00:30:50.877Z,10.18
2017-09-19T00:30:55.426Z,10.29
2017-09-19T00:30:59.608Z,10.32
2017-09-19T00:31:03.660Z,10.24
2017-09-19T00:31:07.710Z,10.22
2017-09-19T00:31:12.016Z,10.22
2017-09-19T00:31:16.066Z,10.24
2017-09-19T00:31:20.371Z,10.26
2017-09-19T00:31:24.553Z,10.28
2017-09-19T00:31:28.606Z,10.22
2017-09-19T00:31:32.910Z,10.22
2017-09-19T00:31:37.093Z,10.24
2017-09-19T00:31:41.517Z,10.34
2017-09-19T00:31:45.447Z,10.24
2017-09-19T00:31:49.633Z,10.25
2017-09-19T00:31:53.815Z,10.18
2017-09-19T00:31:57.868Z,10.28
2017-09-19T00:32:02.394Z,10.26
2017-09-19T00:32:06.324Z,10.28
2017-09-19T00:32:10.248Z,10.26
2017-09-19T00:32:14.428Z,10.25
2017-09-19T00:32:18.732Z,10.22
2017-09-19T00:32:23.164Z,10.32
2017-09-19T00:32:27.651Z,10.24
2017-09-19T00:32:31.959Z,10.32
2017-09-19T00:32:36.267Z,10.25
2017-09-19T00:32:40.736Z,10.32
2017-09-19T00:32:45.036Z,10.26
2017-09-19T00:32:49.088Z,10.32
2017-09-19T00:32:53.140Z,10.25
2017-09-19T00:32:57.318Z,10.26
2017-09-19T00:33:01.498Z,10.28
2017-09-19T00:33:05.551Z,10.35
2017-09-19T00:33:09.984Z,10.25
2017-09-19T00:33:13.911Z,10.26
2017-09-19T00:33:18.211Z,10.26
2017-09-19T00:33:22.398Z,10.25
2017-09-19T00:33:26.828Z,10.28
2017-09-19T00:33:31.125Z,10.26
2017-09-19T00:33:35.182Z,10.29
2017-09-19T00:33:39.238Z,10.34
2017-09-19T00:33:43.190Z,10.25
2017-09-19T00:33:47.495Z,10.29
2017-09-19T00:33:51.797Z,10.29
2017-09-19T00:33:56.225Z,10.31
2017-09-19T00:34:00.658Z,10.25
2017-09-19T00:34:05.141Z,10.29
2017-09-19T00:34:09.446Z,10.28
2017-09-19T00:34:13.880Z,10.25
2017-09-19T00:34:18.187Z,10.31
2017-09-19T00:34:22.360Z,10.29
2017-09-19T00:34:26.537Z,10.29
2017-09-19T00:34:30.591Z,10.32
2017-09-19T00:34:34.891Z,10.31
2017-09-19T00:34:39.191Z,10.29
2017-09-19T00:34:43.246Z,10.28
2017-09-19T00:34:47.427Z,10.28
2017-09-19T00:34:51.738Z,10.26
2017-09-19T00:34:55.913Z,10.25
2017-09-19T00:34:59.966Z,10.31
2017-09-19T00:35:03.918Z,10.28
2017-09-19T00:35:08.219Z,10.28
2017-09-19T00:35:12.401Z,10.31
2017-09-19T00:35:16.592Z,10.26
2017-09-19T00:35:20.910Z,10.29
2017-09-19T00:35:25.085Z,10.28
2017-09-19T00:35:29.385Z,10.29
2017-09-19T00:35:33.563Z,10.31
2017-09-19T00:35:37.872Z,10.29
2017-09-19T00:35:42.044Z,10.34
2017-09-19T00:35:46.218Z,10.34
2017-09-19T00:35:50.520Z,10.29
2017-09-19T00:35:54.829Z,10.29
2017-09-19T00:35:58.884Z,10.28
2017-09-19T00:36:03.137Z,10.31
2017-09-19T00:36:07.311Z,10.34
2017-09-19T00:36:11.515Z,10.25
2017-09-19T00:36:15.945Z,10.29
2017-09-19T00:36:19.865Z,10.26
2017-09-19T00:36:24.046Z,10.29
2017-09-19T00:36:27.971Z,10.31
2017-09-19T00:36:32.027Z,10.29
2017-09-19T00:36:36.458Z,10.29
2017-09-19T00:36:40.633Z,10.26
2017-09-19T00:36:44.814Z,10.29
2017-09-19T00:36:49.123Z,10.29
2017-09-19T00:36:53.416Z,10.29
2017-09-19T00:36:57.595Z,10.26
2017-09-19T00:37:01.927Z,10.32
2017-09-19T00:37:06.107Z,10.29
2017-09-19T00:37:10.541Z,10.29
2017-09-19T00:37:14.976Z,10.34
2017-09-19T00:37:19.286Z,10.31
2017-09-19T00:37:23.597Z,10.29
2017-09-19T00:37:27.903Z,10.28
2017-09-19T00:37:32.204Z,10.24
2017-09-19T00:37:36.132Z,10.35
2017-09-19T00:37:40.185Z,10.29
2017-09-19T00:37:44.358Z,10.31
2017-09-19T00:37:48.543Z,10.31
2017-09-19T00:37:52.729Z,10.29
2017-09-19T00:37:56.779Z,10.34
2017-09-19T00:38:01.076Z,10.32
2017-09-19T00:38:04.878Z,10.31
2017-09-19T00:38:08.949Z,10.25
2017-09-19T00:38:13.124Z,10.28
2017-09-19T00:38:17.301Z,10.29
2017-09-19T00:38:21.370Z,10.29
2017-09-19T00:38:25.678Z,10.24
2017-09-19T00:38:29.856Z,10.28
2017-09-19T00:38:34.159Z,10.34
2017-09-19T00:38:38.344Z,10.24
2017-09-19T00:38:42.532Z,10.35
2017-09-19T00:38:46.831Z,10.28
2017-09-19T00:38:50.880Z,10.31
2017-09-19T00:38:54.809Z,10.26
2017-09-19T00:38:59.116Z,10.31
2017-09-19T00:39:03.114Z,10.35
2017-09-19T00:39:07.674Z,10.22
2017-09-19T00:39:11.857Z,10.31
2017-09-19T00:39:15.907Z,10.32
2017-09-19T00:39:20.210Z,10.26
2017-09-19T00:39:24.389Z,10.26
2017-09-19T00:39:28.444Z,10.31
2017-09-19T00:39:32.876Z,10.28
2017-09-19T00:39:37.053Z,10.28
2017-09-19T00:39:41.108Z,10.26
2017-09-19T00:39:45.159Z,10.39
2017-09-19T00:39:49.331Z,10.32
2017-09-19T00:39:53.625Z,10.32
2017-09-19T00:39:58.052Z,10.32
2017-09-19T00:40:02.516Z,10.26
2017-09-19T00:40:06.695Z,10.36
2017-09-19T00:40:10.877Z,10.34
2017-09-19T00:40:15.056Z,10.29
2017-09-19T00:40:19.381Z,10.35
2017-09-19T00:40:23.552Z,10.43
2017-09-19T00:40:27.604Z,10.36
2017-09-19T00:40:32.158Z,10.18
2017-09-19T00:40:36.208Z,10.29
2017-09-19T00:40:40.516Z,10.29
2017-09-19T00:40:44.569Z,10.32
2017-09-19T00:40:48.492Z,10.35
2017-09-19T00:40:52.668Z,10.35
2017-09-19T00:40:56.855Z,10.35
2017-09-19T00:41:01.037Z,10.24
2017-09-19T00:41:05.378Z,10.36
2017-09-19T00:41:09.550Z,10.32
2017-09-19T00:41:13.732Z,10.29
2017-09-19T00:41:18.041Z,10.39
2017-09-19T00:41:22.101Z,10.32
2017-09-19T00:41:26.288Z,10.32
2017-09-19T00:41:30.589Z,10.34
2017-09-19T00:41:34.771Z,10.34
2017-09-19T00:41:39.072Z,10.35
2017-09-19T00:41:43.500Z,10.32
2017-09-19T00:41:47.684Z,10.36
2017-09-19T00:41:51.862Z,10.26
2017-09-19T00:41:56.077Z,10.32
2017-09-19T00:42:00.639Z,10.35
2017-09-19T00:42:04.706Z,10.39
2017-09-19T00:42:08.885Z,10.32
2017-09-19T00:42:13.070Z,10.35
2017-09-19T00:42:17.374Z,10.29
2017-09-19T00:42:21.550Z,10.31
2017-09-19T00:42:25.870Z,10.31
2017-09-19T00:42:30.051Z,10.38
2017-09-19T00:42:34.348Z,10.29
2017-09-19T00:42:38.414Z,10.36
2017-09-19T00:42:42.592Z,10.32
2017-09-19T00:42:47.139Z,10.31
2017-09-19T00:42:51.317Z,10.35
2017-09-19T00:42:55.243Z,10.26
2017-09-19T00:42:59.296Z,10.35
2017-09-19T00:43:03.475Z,10.28
2017-09-19T00:43:08.029Z,10.35
2017-09-19T00:43:12.089Z,10.32
2017-09-19T00:43:16.141Z,10.43
2017-09-19T00:43:20.320Z,10.31
2017-09-19T00:43:24.248Z,10.28
2017-09-19T00:43:28.546Z,10.26
2017-09-19T00:43:32.855Z,10.28
2017-09-19T00:43:37.159Z,10.38
2017-09-19T00:43:41.593Z,10.36
2017-09-19T00:43:45.648Z,10.35
2017-09-19T00:43:49.572Z,10.28
2017-09-19T00:43:53.756Z,10.34
2017-09-19T00:43:58.064Z,10.35
2017-09-19T00:44:02.666Z,10.39
2017-09-19T00:44:06.845Z,10.32
2017-09-19T00:44:11.014Z,10.29
2017-09-19T00:44:15.311Z,10.36
2017-09-19T00:44:19.613Z,10.31
2017-09-19T00:44:23.915Z,10.38
2017-09-19T00:44:27.971Z,10.42
2017-09-19T00:44:32.272Z,10.38
2017-09-19T00:44:36.453Z,10.34
2017-09-19T00:44:40.879Z,10.26
2017-09-19T00:44:45.053Z,10.34
2017-09-19T00:44:49.229Z,10.28
2017-09-19T00:44:53.536Z,10.39
2017-09-19T00:44:57.587Z,10.39
2017-09-19T00:45:01.512Z,10.32
2017-09-19T00:45:05.690Z,10.34
2017-09-19T00:45:09.870Z,10.39
2017-09-19T00:45:13.672Z,10.36
2017-09-19T00:45:17.972Z,10.35
2017-09-19T00:45:22.275Z,10.29
2017-09-19T00:45:26.745Z,10.34
2017-09-19T00:45:31.049Z,10.36
2017-09-19T00:45:35.104Z,10.29
2017-09-19T00:45:39.277Z,10.31
2017-09-19T00:45:43.703Z,10.32
2017-09-19T00:45:48.002Z,10.38
2017-09-19T00:45:52.058Z,10.43
2017-09-19T00:45:56.490Z,10.32
2017-09-19T00:46:00.415Z,10.42
2017-09-19T00:46:04.664Z,10.35
2017-09-19T00:46:08.839Z,10.26
2017-09-19T00:46:13.019Z,10.36
2017-09-19T00:46:17.316Z,10.36
2017-09-19T00:46:21.371Z,10.34
2017-09-19T00:46:25.557Z,10.31
2017-09-19T00:46:29.738Z,10.36
2017-09-19T00:46:34.044Z,10.36
2017-09-19T00:46:38.347Z,10.31
2017-09-19T00:46:42.521Z,10.31
2017-09-19T00:46:46.579Z,10.39
2017-09-19T00:46:51.018Z,10.31
2017-09-19T00:46:55.322Z,10.31
2017-09-19T00:46:59.371Z,10.31
2017-09-19T00:47:03.604Z,10.38
2017-09-19T00:47:07.659Z,10.38
2017-09-19T00:47:11.839Z,10.32
2017-09-19T00:47:16.017Z,10.26
2017-09-19T00:47:20.321Z,10.28
2017-09-19T00:47:24.499Z,10.32
2017-09-19T00:47:28.559Z,10.35
2017-09-19T00:47:32.662Z,10.38
2017-09-19T00:47:36.969Z,10.31
2017-09-19T00:47:41.145Z,10.35
2017-09-19T00:47:45.452Z,10.44
2017-09-19T00:47:49.502Z,10.31
2017-09-19T00:47:53.561Z,10.32
2017-09-19T00:47:57.861Z,10.38
2017-09-19T00:48:02.536Z,10.29
2017-09-19T00:48:06.728Z,10.35
2017-09-19T00:48:10.916Z,10.29
2017-09-19T00:48:14.849Z,10.32
2017-09-19T00:48:19.034Z,10.36
2017-09-19T00:48:22.840Z,10.38
2017-09-19T00:48:27.269Z,10.32
2017-09-19T00:48:31.068Z,10.32
2017-09-19T00:48:35.118Z,10.32
2017-09-19T00:48:39.291Z,10.39
2017-09-19T00:48:43.600Z,10.34
2017-09-19T00:48:47.776Z,10.31
2017-09-19T00:48:51.961Z,10.35
2017-09-19T00:48:56.015Z,10.29
2017-09-19T00:49:00.196Z,10.29
2017-09-19T00:49:04.248Z,10.36
2017-09-19T00:49:08.173Z,10.35
2017-09-19T00:49:12.229Z,10.35
2017-09-19T00:49:16.409Z,10.38
2017-09-19T00:49:20.456Z,10.32
2017-09-19T00:49:24.757Z,10.36
2017-09-19T00:49:28.813Z,10.35
2017-09-19T00:49:32.863Z,10.31
2017-09-19T00:49:36.914Z,10.31
2017-09-19T00:49:41.344Z,10.35
2017-09-19T00:49:45.399Z,10.36
2017-09-19T00:49:49.834Z,10.36
2017-09-19T00:49:54.018Z,10.32
2017-09-19T00:49:57.946Z,10.43
2017-09-19T00:50:02.250Z,10.29
2017-09-19T00:50:06.308Z,10.34
2017-09-19T00:50:10.236Z,10.38
2017-09-19T00:50:14.535Z,10.32
2017-09-19T00:50:18.834Z,10.28
2017-09-19T00:50:23.148Z,10.42
2017-09-19T00:50:27.605Z,10.26
2017-09-19T00:50:32.027Z,10.32
2017-09-19T00:50:36.075Z,10.34
2017-09-19T00:50:40.260Z,10.35
2017-09-19T00:50:44.690Z,10.39
2017-09-19T00:50:48.624Z,10.38
2017-09-19T00:50:52.677Z,10.28
2017-09-19T00:50:56.865Z,10.38
2017-09-19T00:51:01.290Z,10.29
2017-09-19T00:51:05.279Z,10.39
2017-09-19T00:51:09.457Z,10.36
2017-09-19T00:51:13.764Z,10.36
2017-09-19T00:51:18.063Z,10.36
2017-09-19T00:51:22.114Z,10.29
2017-09-19T00:51:26.674Z,10.29
2017-09-19T00:51:30.727Z,10.36
2017-09-19T00:51:34.907Z,10.36
2017-09-19T00:51:38.955Z,10.31
2017-09-19T00:51:43.140Z,10.28
2017-09-19T00:51:47.066Z,10.32
2017-09-19T00:51:51.120Z,10.31
2017-09-19T00:51:54.921Z,10.34
2017-09-19T00:51:58.978Z,10.36
2017-09-19T00:52:03.234Z,10.43
2017-09-19T00:52:07.533Z,10.32
2017-09-19T00:52:11.464Z,10.26
2017-09-19T00:52:15.892Z,10.32
2017-09-19T00:52:20.222Z,10.31
2017-09-19T00:52:24.148Z,10.26
2017-09-19T00:52:28.572Z,10.28
2017-09-19T00:52:32.994Z,10.31
2017-09-19T00:52:37.052Z,10.29
2017-09-19T00:52:41.606Z,10.32
2017-09-19T00:52:45.789Z,10.38
2017-09-19T00:52:49.717Z,10.29
2017-09-19T00:52:53.897Z,10.26
2017-09-19T00:52:58.199Z,10.35
2017-09-19T00:53:02.501Z,10.29
2017-09-19T00:53:06.948Z,10.39
2017-09-19T00:53:11.260Z,10.31
2017-09-19T00:53:15.687Z,10.29
2017-09-19T00:53:19.988Z,10.32
2017-09-19T00:53:24.041Z,10.25
2017-09-19T00:53:28.100Z,10.22
2017-09-19T00:53:32.535Z,10.31
2017-09-19T00:53:36.583Z,10.31
2017-09-19T00:53:40.763Z,10.29
2017-09-19T00:53:44.819Z,10.31
2017-09-19T00:53:48.870Z,10.34
2017-09-19T00:53:52.917Z,10.31
2017-09-19T00:53:57.100Z,10.29
2017-09-19T00:54:01.405Z,10.35
2017-09-19T00:54:05.590Z,10.28
2017-09-19T00:54:09.764Z,10.29
2017-09-19T00:54:13.694Z,10.28
2017-09-19T00:54:17.871Z,10.31
2017-09-19T00:54:21.799Z,10.28
2017-09-19T00:54:25.853Z,10.29
2017-09-19T00:54:30.035Z,10.35
2017-09-19T00:54:34.472Z,10.32
2017-09-19T00:54:38.651Z,10.32
2017-09-19T00:54:42.701Z,10.32